Asharoken, New York
Current Conditions -  °F | °C
As of 2:53 PM on Saturday 25 Oct 2014 (Local Time) from KFRG Reporting Station
Clear Clear  
Wind Chill: 65°   Ceiling: Unl
Heat Index: 65°   Visibility: 10mi
Dew Point: 43°   Wind: 9mph
Humidity: 45%   Direction: 260°W
Pressure: 29.71"   Gusts: 21mph
Location:  40.9096°N, 73.3231°W
Report Text: KFRG 251853Z 26008G18KT 10SM CLR 18/06 A2971 RMK AO2 SLP060 T01830061
Loading
Personal Weather Stations






























Interactive Weather Map
Tropical Storm Tracking
New forecast layout! Learn more

10-Day Weather Forecast

Advertisements
Track Severe Weather on mobile